Data for 04/26/2017

Time Sea-Level Adjusted Pressure Absolute Pressure Temperature Relative Humidity Dew Point   
(mb) (inHg) (mb) (inHg) (C) (F) (%) (C) (F)
00:05 1012 29.88 841 24.83 3.6 38.5 78 0.2 32.4
00:10 1012 29.88 841 24.83 3.6 38.5 79 0.3 32.6
00:15 1012 29.88 841 24.83 3.6 38.5 79 0.3 32.5
00:20 1012 29.88 841 24.83 3.6 38.5 79 0.3 32.5
00:25 1012 29.88 841 24.83 3.6 38.4 79 0.3 32.5
00:30 1012 29.88 841 24.83 3.4 38.1 80 0.3 32.5
00:35 1012 29.88 841 24.83 3.4 38 81 0.3 32.6
00:40 1012 29.88 841 24.83 3.4 38 81 0.4 32.7
00:45 1012 29.88 841 24.83 3.3 38 81 0.3 32.5
00:50 1012 29.88 841 24.83 3.3 37.9 80 0.1 32.2
00:55 1012 29.88 841 24.83 3.3 37.9 80 0.2 32.3
01:00 1012 29.88 841 24.83 3.3 37.9 80 0.2 32.4
01:05 1012 29.88 841 24.83 3.3 37.9 80 0.2 32.4
01:10 1012 29.88 841 24.83 3.3 38 79 0.1 32.1
01:15 1012 29.88 841 24.83 3.5 38.2 78 -0.1 31.9
01:20 1012 29.88 841 24.83 3.5 38.3 78 0 32
01:25 1012 29.88 841 24.83 3.5 38.3 78 0.1 32.1
01:30 1012 29.88 841 24.83 3.3 38 79 0 32.1
01:35 1012 29.88 841 24.83 3.3 37.9 80 0.1 32.1
01:40 1012 29.88 841 24.83 3.2 37.7 80 0 32
01:45 1012 29.88 841 24.83 3.2 37.7 80 0.1 32.1
01:50 1011 29.85 841 24.83 3.2 37.8 79 -0 31.9
01:55 1011 29.85 841 24.83 3.3 37.9 79 -0.1 31.9
02:00 1011 29.85 841 24.83 3.3 38 80 0.1 32.2
02:05 1011 29.85 840 24.81 3.2 37.7 81 0.3 32.5
02:10 1011 29.85 840 24.81 2.9 37.3 83 0.3 32.5
02:15 1011 29.85 840 24.81 2.8 37 83 0.2 32.4
02:20 1011 29.85 840 24.81 2.8 37 83 0.2 32.4
02:25 1011 29.85 840 24.81 2.8 37.1 83 0.2 32.4
02:30 1011 29.85 840 24.81 2.8 37 84 0.3 32.5
02:35 1011 29.85 840 24.81 2.8 37 84 0.3 32.5
02:40 1011 29.85 840 24.81 2.8 37 84 0.3 32.5
02:45 1011 29.85 840 24.81 2.7 36.9 84 0.3 32.5
02:50 1011 29.85 840 24.81 2.7 36.9 84 0.3 32.6
02:55 1011 29.85 840 24.81 2.7 36.9 84 0.3 32.5
03:00 1011 29.85 840 24.81 2.8 37 84 0.3 32.5
03:05 1011 29.85 840 24.81 2.8 37 84 0.3 32.6
03:10 1011 29.85 840 24.81 2.8 37 84 0.3 32.6
03:15 1011 29.85 840 24.81 2.8 37 84 0.3 32.5
03:20 1011 29.85 840 24.81 2.8 37.1 83 0.3 32.5
03:25 1011 29.85 840 24.81 2.9 37.3 83 0.4 32.7
03:30 1011 29.85 840 24.81 3 37.3 83 0.4 32.7
03:35 1011 29.85 840 24.81 2.8 37.1 84 0.3 32.6
03:40 1011 29.85 840 24.81 2.8 37.1 83 0.2 32.4
03:45 1011 29.85 840 24.81 2.9 37.2 83 0.3 32.5
03:50 1011 29.85 840 24.81 2.8 37.1 83 0.3 32.5
03:55 1011 29.85 840 24.81 2.8 37.1 83 0.3 32.5
04:00 1011 29.85 840 24.81 2.8 37.1 83 0.3 32.5
04:05 1011 29.85 840 24.81 2.9 37.1 84 0.4 32.7
04:10 1011 29.85 840 24.81 2.8 37.1 84 0.4 32.7
04:15 1011 29.85 840 24.81 2.8 37 85 0.5 32.9
04:20 1011 29.85 840 24.81 2.7 36.9 85 0.5 32.8
04:25 1011 29.85 840 24.81 2.8 37 85 0.5 33
04:30 1011 29.85 840 24.81 2.8 37 86 0.6 33.2
04:35 1011 29.85 840 24.81 2.9 37.2 85 0.6 33.1
04:40 1011 29.85 840 24.81 3 37.4 85 0.7 33.3
04:45 1011 29.85 840 24.81 3.2 37.7 83 0.6 33.1
04:50 1011 29.85 840 24.81 3.3 37.9 83 0.6 33
04:55 1011 29.85 840 24.81 3.3 37.9 83 0.8 33.4
05:00 1011 29.85 840 24.81 3.4 38.1 83 0.8 33.5
05:05 1011 29.85 840 24.81 3.4 38.2 84 1 33.7
05:10 1011 29.85 840 24.81 3.4 38.2 85 1.1 33.9
05:15 1011 29.85 840 24.81 3.3 37.9 84 0.8 33.5
05:20 1011 29.85 840 24.81 3.1 37.6 84 0.7 33.3
05:25 1011 29.85 840 24.81 3.2 37.7 84 0.7 33.2
05:30 1011 29.85 840 24.81 3.2 37.8 85 0.9 33.6
05:35 1011 29.85 840 24.81 3.3 37.9 85 1 33.7
05:40 1011 29.85 840 24.81 3.4 38.1 84 0.9 33.7
05:45 1010 29.83 840 24.81 3.3 38 84 0.9 33.7
05:50 1010 29.83 840 24.81 3.3 37.9 84 0.8 33.5
05:55 1010 29.83 840 24.81 3.2 37.7 85 0.9 33.6
06:00 1010 29.83 840 24.81 3.2 37.8 86 1.1 34
06:05 1010 29.83 840 24.81 3.2 37.8 86 1 33.9
06:10 1011 29.85 840 24.81 3.3 37.9 85 1 33.8
06:15 1010 29.83 840 24.81 3.3 38 85 1.1 34
06:20 1010 29.83 840 24.81 3.4 38.1 85 1.1 34
06:25 1010 29.83 840 24.81 3.3 38 85 1 33.9
06:30 1010 29.83 840 24.81 3.2 37.8 85 1 33.8
06:35 1010 29.83 840 24.81 3.1 37.6 87 1.1 33.9
06:40 1010 29.83 840 24.81 3 37.4 88 1.2 34.1
06:45 1010 29.83 840 24.81 2.9 37.2 89 1.2 34.2
06:50 1010 29.83 840 24.81 2.9 37.3 89 1.3 34.4
06:55 1010 29.83 840 24.81 2.9 37.3 89 1.3 34.4
07:00 1010 29.83 840 24.81 2.9 37.2 89 1.3 34.3
07:05 1010 29.83 840 24.81 2.9 37.1 89 1.3 34.3
07:10 1010 29.83 839 24.78 2.8 37 89 1.2 34.2
07:15 1010 29.83 839 24.78 2.8 37 89 1.2 34.1
07:20 1010 29.83 839 24.78 2.7 36.8 90 1.2 34.2
07:25 1010 29.83 839 24.78 2.8 37 90 1.3 34.3
07:30 1010 29.83 839 24.78 2.8 37.1 90 1.3 34.3
07:35 1010 29.83 839 24.78 2.8 37.1 89 1.1 34
07:40 1010 29.83 839 24.78 2.9 37.2 87 1 33.8
07:45 1010 29.83 839 24.78 3.1 37.6 87 1.2 34.1
07:50 1010 29.83 839 24.78 3.3 37.9 87 1.3 34.3
07:55 1010 29.83 839 24.78 3.3 38 86 1.2 34.1
08:00 1010 29.83 839 24.78 3.3 38 85 1.1 34
08:05 1010 29.83 839 24.78 3.5 38.2 84 1.1 33.9
08:10 1010 29.83 839 24.78 3.5 38.3 85 1.2 34.1
08:15 1010 29.83 840 24.81 3.7 38.6 83 1.1 33.9
08:20 1010 29.83 839 24.78 3.6 38.5 83 0.9 33.6
08:25 1010 29.83 839 24.78 3.6 38.5 83 1 33.8
08:30 1010 29.83 839 24.78 3.8 38.8 82 1 33.8
08:35 1010 29.83 839 24.78 3.9 39 82 1.1 34
08:40 1010 29.83 839 24.78 4 39.1 81 1.1 33.9
08:45 1010 29.83 839 24.78 3.9 38.9 83 1.2 34.1
08:50 1010 29.83 839 24.78 3.8 38.9 82 1 33.9
08:55 1010 29.83 839 24.78 3.9 39 80 0.8 33.5
09:00 1010 29.83 839 24.78 4 39.2 82 1.3 34.3
09:05 1010 29.83 839 24.78 4.2 39.5 82 1.3 34.4
09:10 1010 29.83 839 24.78 4.2 39.6 80 1.1 34.1
09:15 1010 29.83 839 24.78 4.3 39.7 80 1.1 33.9
09:20 1010 29.83 839 24.78 4.3 39.8 80 1.2 34.1
09:25 1010 29.83 839 24.78 4.8 40.6 74 0.5 33
09:30 1010 29.83 839 24.78 5.1 41.2 77 1.3 34.4
09:35 1010 29.83 839 24.78 5.6 42 70 0.5 33
09:40 1010 29.83 839 24.78 5.7 42.2 71 0.7 33.3
09:45 1010 29.83 839 24.78 5.7 42.3 73 1.2 34.1
09:50 1010 29.83 839 24.78 6.3 43.3 66 0.4 32.7
09:55 1010 29.83 839 24.78 6.7 44 61 -0.2 31.6
10:00 1010 29.83 839 24.78 7.2 45 67 1.6 34.9
10:05 1010 29.83 839 24.78 7.3 45.2 67 1.6 34.9
10:10 1009 29.8 839 24.78 8 46.3 60 0.7 33.2
10:15 1009 29.8 839 24.78 8 46.3 60 0.7 33.3
10:20 1009 29.8 839 24.78 8.5 47.2 57 0.4 32.8
10:25 1009 29.8 839 24.78 8.3 47 55 -0.3 31.5
10:30 1009 29.8 839 24.78 8.4 47.2 51 -1.2 29.8
10:35 1009 29.8 838 24.75 8.8 47.9 50 -1 30.3
10:40 1009 29.8 838 24.75 9.7 49.5 47 -1.1 30
10:45 1009 29.8 838 24.75 10 49.9 48 -0.6 30.9
10:50 1009 29.8 838 24.75 9.9 49.8 46 -1 30.2
10:55 1009 29.8 838 24.75 9.7 49.4 47 -1.1 30.1
11:00 1009 29.8 838 24.75 10.3 50.5 39 -2.9 26.8
11:05 1009 29.8 838 24.75 9.4 48.9 42 -2.9 26.7
11:10 1009 29.8 838 24.75 10.3 50.5 37 -3.8 25.2
11:15 1009 29.8 838 24.75 10.7 51.3 37 -3.5 25.7
11:20 1009 29.8 838 24.75 10.1 50.2 40 -2.9 26.9
11:25 1009 29.8 838 24.75 9.4 48.9 44 -2.4 27.7
11:30 1009 29.8 838 24.75 9.7 49.4 39 -3.6 25.6
11:35 1009 29.8 838 24.75 9.9 49.8 40 -3.2 26.2
11:40 1009 29.8 838 24.75 10 50 40 -3 26.5
11:45 1009 29.8 838 24.75 10.1 50.1 42 -2.3 27.9
11:50 1009 29.8 838 24.75 9.9 49.7 43 -2 28.3
11:55 1009 29.8 838 24.75 9.6 49.3 42 -2.8 27
12:00 1009 29.8 838 24.75 9.1 48.3 40 -3.6 25.4
12:05 1009 29.8 838 24.75 9.2 48.6 37 -4.7 23.6
12:10 1008 29.77 838 24.75 9.6 49.2 36 -4.8 23.4
12:15 1008 29.77 838 24.75 9.6 49.2 34 -5.4 22.3
12:20 1008 29.77 838 24.75 10 50 37 -3.9 25
12:25 1008 29.77 838 24.75 9 48.2 39 -4.3 24.2
12:30 1008 29.77 838 24.75 8.9 48 38 -4.6 23.8
12:35 1008 29.77 838 24.75 9.1 48.4 35 -5.4 22.3
12:40 1008 29.77 837 24.72 9.4 48.9 36 -5.1 22.9
12:45 1008 29.77 837 24.72 9.5 49 45 -1.9 28.6
12:50 1008 29.77 837 24.72 8.6 47.4 48 -1.7 28.9
12:55 1008 29.77 837 24.72 8.2 46.8 47 -2.5 27.5
13:00 1008 29.77 837 24.72 8.2 46.8 46 -2.7 27.2
13:05 1008 29.77 837 24.72 9.3 48.7 46 -1.7 29
13:10 1008 29.77 837 24.72 8.6 47.6 47 -1.9 28.5
13:15 1008 29.77 837 24.72 9.2 48.5 43 -2.7 27.1
13:20 1008 29.77 837 24.72 9.4 48.8 44 -2.3 27.9
13:25 1008 29.77 837 24.72 9.5 49.1 43 -2.4 27.7
13:30 1008 29.77 837 24.72 9.5 49.1 43 -2.4 27.7
13:35 1008 29.77 837 24.72 9.8 49.6 40 -3.1 26.4
13:40 1008 29.77 837 24.72 10 50.1 39 -3.1 26.4
13:45 1008 29.77 837 24.72 10 50 41 -2.6 27.4
13:50 1008 29.77 837 24.72 10.1 50.2 40 -2.8 27
13:55 1007 29.74 837 24.72 10.3 50.5 39 -3.1 26.4
14:00 1007 29.74 837 24.72 10.2 50.4 36 -4 24.9
14:05 1007 29.74 837 24.72 11 51.8 34 -4.3 24.2
14:10 1007 29.74 837 24.72 11.4 52.5 34 -4 24.7
14:15 1007 29.74 837 24.72 11.9 53.3 33 -4 24.7
14:20 1007 29.74 836 24.69 12 53.7 33 -3.7 25.3
14:25 1007 29.74 836 24.69 11.9 53.3 34 -3.4 25.8
14:30 1007 29.74 836 24.69 10.9 51.7 37 -3 26.6
14:35 1007 29.74 836 24.69 9.9 49.8 37 -4.1 24.7
14:40 1007 29.74 836 24.69 9.3 48.8 38 -4.1 24.6
14:45 1007 29.74 836 24.69 10.1 50.1 33 -5.3 22.5
14:50 1007 29.74 836 24.69 12 53.5 30 -5.1 22.8
14:55 1007 29.74 836 24.69 11.7 53.1 31 -4.7 23.6
15:00 1007 29.74 836 24.69 11.6 52.9 32 -4.3 24.2
15:05 1007 29.74 836 24.69 11.4 52.5 32 -4.6 23.7
15:10 1007 29.74 836 24.69 10.5 51 34 -4.8 23.4
15:15 1007 29.74 836 24.69 10.9 51.6 33 -4.7 23.6
15:20 1007 29.74 836 24.69 10 49.9 37 -4 24.8
15:25 1007 29.74 836 24.69 10.1 50.2 37 -4 24.9
15:30 1007 29.74 836 24.69 10.4 50.7 38 -3.3 26.1
15:35 1007 29.74 836 24.69 10.1 50.1 46 -1 30.3
15:40 1007 29.74 836 24.69 8.7 47.6 48 -1.8 28.7
15:45 1007 29.74 836 24.69 8.8 47.8 47 -2 28.5
15:50 1007 29.74 836 24.69 9.2 48.6 49 -1 30.1
15:55 1007 29.74 836 24.69 9.2 48.5 47 -1.5 29.4
16:00 1007 29.74 836 24.69 9.4 48.9 47 -1.2 29.9
16:05 1007 29.74 836 24.69 10.1 50.2 45 -1.2 29.8
16:10 1007 29.74 836 24.69 10.1 50.1 45 -1.3 29.7
16:15 1007 29.74 836 24.69 9.7 49.5 51 0.1 32.2
16:20 1007 29.74 836 24.69 9.3 48.7 51 -0.4 31.3
16:25 1007 29.74 836 24.69 9.6 49.2 46 -1.5 29.3
16:30 1007 29.74 836 24.69 9.1 48.3 48 -1.4 29.4
16:35 1007 29.74 836 24.69 8.9 48 47 -1.8 28.8
16:40 1007 29.74 836 24.69 9.3 48.8 42 -2.7 27.1
16:45 1007 29.74 836 24.69 9.2 48.5 45 -2 28.4
16:50 1007 29.74 836 24.69 9.4 48.9 44 -2.1 28.2
16:55 1007 29.74 836 24.69 9.7 49.4 41 -2.8 26.9
17:00 1006 29.71 836 24.69 10.1 50.2 39 -3.2 26.3
17:05 1006 29.71 836 24.69 10.2 50.4 40 -2.8 27
17:10 1006 29.71 835 24.66 9.8 49.6 41 -2.8 26.9
17:15 1006 29.71 835 24.66 9.9 49.8 41 -2.7 27.2
17:20 1006 29.71 835 24.66 10.5 51 40 -2.4 27.6
17:25 1006 29.71 835 24.66 10.4 50.8 44 -1.4 29.5
17:30 1006 29.71 836 24.69 10.1 50.1 54 1.2 34.2
17:35 1007 29.74 836 24.69 7.1 44.8 68 1.6 34.9
17:40 1007 29.74 836 24.69 5.3 41.6 75 1.2 34.1
17:45 1007 29.74 836 24.69 4.8 40.7 78 1.3 34.3
17:50 1007 29.74 836 24.69 4.7 40.4 79 1.4 34.4
17:55 1007 29.74 836 24.69 4.4 40 80 1.3 34.3
18:00 1007 29.74 837 24.72 4.2 39.5 81 1.2 34.1
18:05 1007 29.74 837 24.72 3.7 38.6 84 1.3 34.3
18:10 1007 29.74 837 24.72 3.3 38 86 1.2 34.1
18:15 1007 29.74 837 24.72 3 37.3 85 0.6 33.2
18:20 1007 29.74 837 24.72 2.8 37 84 0.3 32.5
18:25 1007 29.74 837 24.72 2.8 37.1 82 0 32.1
18:30 1007 29.74 837 24.72 3.1 37.7 81 0.2 32.4
18:35 1007 29.74 836 24.69 3.4 38.2 79 0.1 32.1
18:40 1007 29.74 836 24.69 3.8 38.9 76 0.1 32.1
18:45 1007 29.74 836 24.69 4.2 39.5 77 0.5 32.9
18:50 1007 29.74 836 24.69 3.9 39 82 1 33.8
18:55 1007 29.74 836 24.69 3.5 38.3 84 1.1 33.9
19:00 1007 29.74 836 24.69 3.4 38.1 84 0.9 33.6
19:05 1007 29.74 836 24.69 3.3 38 82 0.6 33
19:10 1007 29.74 836 24.69 3.4 38.1 81 0.5 32.9
19:15 1007 29.74 836 24.69 3.7 38.7 80 0.6 33
19:20 1007 29.74 836 24.69 3.9 38.9 79 0.6 33.1
19:25 1007 29.74 836 24.69 4 39.2 79 0.6 33.1
19:30 1007 29.74 836 24.69 4.1 39.4 78 0.6 33
19:35 1007 29.74 836 24.69 4.2 39.6 78 0.8 33.4
19:40 1007 29.74 836 24.69 4.3 39.8 76 0.5 33
19:45 1007 29.74 836 24.69 4.4 39.9 76 0.5 32.9
19:50 1007 29.74 836 24.69 4.4 40 76 0.6 33
19:55 1007 29.74 836 24.69 4.4 39.9 76 0.5 33
20:00 1007 29.74 836 24.69 4.4 39.9 75 0.3 32.6
20:05 1007 29.74 836 24.69 4.5 40 75 0.4 32.8
20:10 1007 29.74 836 24.69 4.5 40.1 77 0.8 33.4
20:15 1007 29.74 836 24.69 4.5 40.1 78 0.9 33.7
20:20 1007 29.74 836 24.69 4.3 39.8 78 0.8 33.4
20:25 1007 29.74 836 24.69 4.2 39.6 78 0.7 33.3
20:30 1007 29.74 836 24.69 4 39.1 78 0.4 32.7
20:35 1007 29.74 836 24.69 4 39.1 79 0.7 33.3
20:40 1007 29.74 836 24.69 4.1 39.4 77 0.5 32.9
20:45 1007 29.74 836 24.69 4.2 39.5 78 0.7 33.3
20:50 1007 29.74 836 24.69 4.3 39.7 77 0.6 33.1
20:55 1007 29.74 836 24.69 4.4 39.9 76 0.5 33
21:00 1007 29.74 836 24.69 4.4 39.9 78 0.8 33.4
21:05 1007 29.74 836 24.69 4.3 39.8 78 0.9 33.6
21:10 1007 29.74 836 24.69 4.2 39.6 82 1.4 34.5
21:15 1007 29.74 836 24.69 4.2 39.5 82 1.3 34.4
21:20 1007 29.74 836 24.69 4.1 39.4 83 1.5 34.6
21:25 1007 29.74 836 24.69 4.1 39.3 81 1 33.8
21:30 1007 29.74 836 24.69 4 39.3 81 1 33.9
21:35 1007 29.74 836 24.69 4 39.2 82 1.2 34.1
21:40 1007 29.74 836 24.69 4 39.2 83 1.3 34.4
21:45 1007 29.74 837 24.72 3.7 38.7 84 1.3 34.4
21:50 1007 29.74 837 24.72 3.4 38 85 1 33.9
21:55 1007 29.74 836 24.69 3 37.5 86 0.9 33.6
22:00 1007 29.74 836 24.69 3 37.3 86 0.8 33.4
22:05 1007 29.74 836 24.69 3 37.4 86 0.9 33.7
22:10 1007 29.74 836 24.69 2.9 37.2 87 0.9 33.6
22:15 1007 29.74 836 24.69 2.6 36.7 87 0.6 33.1
22:20 1007 29.74 836 24.69 2.4 36.4 87 0.6 33
22:25 1007 29.74 836 24.69 2.4 36.3 88 0.6 33.1
22:30 1007 29.74 836 24.69 2.3 36.2 88 0.6 33.1
22:35 1007 29.74 836 24.69 2.3 36.1 88 0.6 33
22:40 1007 29.74 836 24.69 2.2 36 89 0.5 33
22:45 1007 29.74 836 24.69 2.2 35.9 89 0.6 33.1
22:50 1006 29.71 836 24.69 2.2 35.9 89 0.6 33.1
22:55 1006 29.71 836 24.69 2.2 35.9 90 0.6 33.1
23:00 1006 29.71 836 24.69 2.2 35.9 89 0.6 33.1
23:05 1006 29.71 836 24.69 2.1 35.8 89 0.5 33
23:10 1006 29.71 836 24.69 2 35.6 89 0.4 32.7
23:15 1006 29.71 835 24.66 2 35.6 88 0.3 32.5
23:20 1006 29.71 835 24.66 2 35.6 89 0.4 32.7
23:25 1006 29.71 835 24.66 2.1 35.7 89 0.4 32.8
23:30 1006 29.71 836 24.69 2.1 35.8 89 0.4 32.8
23:35 1006 29.71 835 24.66 2.1 35.8 89 0.5 32.8
23:40 1006 29.71 835 24.66 2.1 35.8 89 0.5 32.8
23:45 1006 29.71 835 24.66 2.2 36 88 0.5 32.9
23:50 1006 29.71 835 24.66 2.3 36.1 87 0.4 32.7
23:55 1006 29.71 835 24.66 2.4 36.3 87 0.4 32.8
24:00 1006 29.71 835 24.66 2.4 36.3 87 0.5 33